sensor_id;sensor_type;location;lat;lon;timestamp;P1;durP1;ratioP1;P2;durP2;ratioP2
35592;SDS011;64447;52.140;5.602;2023-02-13T00:01:58;28.75;;;16.10;;
35592;SDS011;64447;52.140;5.602;2023-02-13T00:04:23;27.70;;;15.48;;
35592;SDS011;64447;52.140;5.602;2023-02-13T00:06:49;31.13;;;16.67;;
35592;SDS011;64447;52.140;5.602;2023-02-13T00:09:15;29.65;;;16.75;;
35592;SDS011;64447;52.140;5.602;2023-02-13T00:11:40;30.65;;;16.58;;
35592;SDS011;64447;52.140;5.602;2023-02-13T00:14:06;33.72;;;17.77;;
35592;SDS011;64447;52.140;5.602;2023-02-13T00:19:54;29.08;;;16.83;;
35592;SDS011;64447;52.140;5.602;2023-02-13T00:22:19;30.13;;;15.65;;
35592;SDS011;64447;52.140;5.602;2023-02-13T00:24:45;31.35;;;16.40;;
35592;SDS011;64447;52.140;5.602;2023-02-13T00:27:11;28.52;;;15.40;;
35592;SDS011;64447;52.140;5.602;2023-02-13T00:29:36;26.25;;;16.33;;
35592;SDS011;64447;52.140;5.602;2023-02-13T00:32:02;30.17;;;16.00;;
35592;SDS011;64447;52.140;5.602;2023-02-13T00:34:27;29.83;;;15.50;;
35592;SDS011;64447;52.140;5.602;2023-02-13T00:36:53;31.10;;;16.77;;
35592;SDS011;64447;52.140;5.602;2023-02-13T00:39:18;31.55;;;17.05;;
35592;SDS011;64447;52.140;5.602;2023-02-13T00:41:44;32.22;;;17.60;;
35592;SDS011;64447;52.140;5.602;2023-02-13T00:44:09;31.42;;;16.77;;
35592;SDS011;64447;52.140;5.602;2023-02-13T00:49:57;28.30;;;15.63;;
35592;SDS011;64447;52.140;5.602;2023-02-13T00:52:23;31.48;;;17.67;;
35592;SDS011;64447;52.140;5.602;2023-02-13T00:54:48;31.42;;;16.48;;
35592;SDS011;64447;52.140;5.602;2023-02-13T00:57:14;33.05;;;17.70;;
35592;SDS011;64447;52.140;5.602;2023-02-13T00:59:39;32.47;;;17.50;;
35592;SDS011;64447;52.140;5.602;2023-02-13T01:02:05;35.80;;;17.95;;
35592;SDS011;64447;52.140;5.602;2023-02-13T01:04:30;34.65;;;18.45;;
35592;SDS011;64447;52.140;5.602;2023-02-13T01:06:56;30.92;;;17.58;;
35592;SDS011;64447;52.140;5.602;2023-02-13T01:09:22;32.38;;;17.48;;
35592;SDS011;64447;52.140;5.602;2023-02-13T01:11:47;30.73;;;18.27;;
35592;SDS011;64447;52.140;5.602;2023-02-13T01:14:13;35.15;;;18.45;;
35592;SDS011;64447;52.140;5.602;2023-02-13T01:20:00;35.70;;;18.52;;
35592;SDS011;64447;52.140;5.602;2023-02-13T01:22:26;33.88;;;16.98;;
35592;SDS011;64447;52.140;5.602;2023-02-13T01:24:51;31.00;;;16.17;;
35592;SDS011;64447;52.140;5.602;2023-02-13T01:27:17;33.53;;;18.00;;
35592;SDS011;64447;52.140;5.602;2023-02-13T01:29:42;31.90;;;17.17;;
35592;SDS011;64447;52.140;5.602;2023-02-13T01:32:08;34.53;;;18.40;;
35592;SDS011;64447;52.140;5.602;2023-02-13T01:34:34;31.50;;;17.92;;
35592;SDS011;64447;52.140;5.602;2023-02-13T01:36:59;33.95;;;18.58;;
35592;SDS011;64447;52.140;5.602;2023-02-13T01:39:25;34.92;;;19.27;;
35592;SDS011;64447;52.140;5.602;2023-02-13T01:41:50;34.05;;;18.38;;
35592;SDS011;64447;52.140;5.602;2023-02-13T01:51:02;32.67;;;18.17;;
35592;SDS011;64447;52.140;5.602;2023-02-13T01:53:36;37.40;;;18.45;;
35592;SDS011;64447;52.140;5.602;2023-02-13T01:56:12;35.67;;;17.73;;
35592;SDS011;64447;52.140;5.602;2023-02-13T01:58:46;33.70;;;16.95;;
35592;SDS011;64447;52.140;5.602;2023-02-13T02:01:15;36.78;;;19.10;;
35592;SDS011;64447;52.140;5.602;2023-02-13T02:03:42;35.55;;;18.70;;
35592;SDS011;64447;52.140;5.602;2023-02-13T02:06:18;33.17;;;18.35;;
35592;SDS011;64447;52.140;5.602;2023-02-13T02:08:51;36.17;;;17.95;;
35592;SDS011;64447;52.140;5.602;2023-02-13T02:11:24;30.25;;;17.38;;
35592;SDS011;64447;52.140;5.602;2023-02-13T02:14:01;33.45;;;18.35;;
35592;SDS011;64447;52.140;5.602;2023-02-13T02:16:27;34.13;;;19.33;;
35592;SDS011;64447;52.140;5.602;2023-02-13T02:18:54;33.05;;;17.85;;
35592;SDS011;64447;52.140;5.602;2023-02-13T02:21:27;34.42;;;18.73;;
35592;SDS011;64447;52.140;5.602;2023-02-13T02:24:23;36.20;;;18.40;;
35592;SDS011;64447;52.140;5.602;2023-02-13T02:27:27;34.95;;;18.60;;
35592;SDS011;64447;52.140;5.602;2023-02-13T02:43:32;36.13;;;19.15;;
35592;SDS011;64447;52.140;5.602;2023-02-13T02:49:21;35.95;;;17.95;;
35592;SDS011;64447;52.140;5.602;2023-02-13T02:52:07;32.40;;;17.98;;
35592;SDS011;64447;52.140;5.602;2023-02-13T02:54:45;37.55;;;20.27;;
35592;SDS011;64447;52.140;5.602;2023-02-13T02:57:30;32.97;;;18.80;;
35592;SDS011;64447;52.140;5.602;2023-02-13T03:00:16;33.25;;;18.65;;
35592;SDS011;64447;52.140;5.602;2023-02-13T03:03:04;38.22;;;18.10;;
35592;SDS011;64447;52.140;5.602;2023-02-13T03:05:56;36.75;;;19.15;;
35592;SDS011;64447;52.140;5.602;2023-02-13T03:08:38;39.67;;;19.33;;
35592;SDS011;64447;52.140;5.602;2023-02-13T03:11:26;33.58;;;18.25;;
35592;SDS011;64447;52.140;5.602;2023-02-13T03:14:10;34.78;;;18.30;;
35592;SDS011;64447;52.140;5.602;2023-02-13T03:16:40;31.35;;;17.25;;
35592;SDS011;64447;52.140;5.602;2023-02-13T03:19:41;34.53;;;19.15;;
35592;SDS011;64447;52.140;5.602;2023-02-13T03:25:17;34.28;;;18.20;;
35592;SDS011;64447;52.140;5.602;2023-02-13T03:34:22;32.88;;;18.00;;
35592;SDS011;64447;52.140;5.602;2023-02-13T03:37:11;33.90;;;19.50;;
35592;SDS011;64447;52.140;5.602;2023-02-13T03:40:16;34.05;;;18.50;;
35592;SDS011;64447;52.140;5.602;2023-02-13T03:43:00;37.20;;;19.25;;
35592;SDS011;64447;52.140;5.602;2023-02-13T03:45:35;32.88;;;18.77;;
35592;SDS011;64447;52.140;5.602;2023-02-13T03:48:24;35.15;;;17.95;;
35592;SDS011;64447;52.140;5.602;2023-02-13T03:51:13;32.50;;;17.52;;
35592;SDS011;64447;52.140;5.602;2023-02-13T03:53:45;34.33;;;17.27;;
35592;SDS011;64447;52.140;5.602;2023-02-13T03:56:14;32.63;;;17.55;;
35592;SDS011;64447;52.140;5.602;2023-02-13T03:59:01;33.70;;;19.17;;
35592;SDS011;64447;52.140;5.602;2023-02-13T04:01:38;36.17;;;18.75;;
35592;SDS011;64447;52.140;5.602;2023-02-13T04:04:08;39.38;;;19.15;;
35592;SDS011;64447;52.140;5.602;2023-02-13T04:06:52;34.78;;;17.55;;
35592;SDS011;64447;52.140;5.602;2023-02-13T04:09:26;33.47;;;18.77;;
35592;SDS011;64447;52.140;5.602;2023-02-13T04:17:57;33.97;;;17.80;;
35592;SDS011;64447;52.140;5.602;2023-02-13T04:20:34;32.97;;;17.20;;
35592;SDS011;64447;52.140;5.602;2023-02-13T04:23:04;33.83;;;16.95;;
35592;SDS011;64447;52.140;5.602;2023-02-13T04:25:31;31.10;;;16.60;;
35592;SDS011;64447;52.140;5.602;2023-02-13T04:27:57;32.25;;;16.85;;
35592;SDS011;64447;52.140;5.602;2023-02-13T04:33:43;34.63;;;18.00;;
35592;SDS011;64447;52.140;5.602;2023-02-13T04:36:09;34.45;;;17.95;;
35592;SDS011;64447;52.140;5.602;2023-02-13T04:38:35;41.50;;;20.20;;
35592;SDS011;64447;52.140;5.602;2023-02-13T04:41:00;38.42;;;19.60;;
35592;SDS011;64447;52.140;5.602;2023-02-13T04:43:26;33.03;;;17.15;;
35592;SDS011;64447;52.140;5.602;2023-02-13T04:49:13;31.85;;;17.42;;
35592;SDS011;64447;52.140;5.602;2023-02-13T04:51:38;33.33;;;17.63;;
35592;SDS011;64447;52.140;5.602;2023-02-13T04:54:04;35.08;;;16.98;;
35592;SDS011;64447;52.140;5.602;2023-02-13T04:56:30;36.97;;;18.10;;
35592;SDS011;64447;52.140;5.602;2023-02-13T04:58:55;35.67;;;17.67;;
35592;SDS011;64447;52.140;5.602;2023-02-13T05:04:43;32.83;;;17.90;;
35592;SDS011;64447;52.140;5.602;2023-02-13T05:07:08;40.35;;;19.02;;
35592;SDS011;64447;52.140;5.602;2023-02-13T05:09:34;40.85;;;19.83;;
35592;SDS011;64447;52.140;5.602;2023-02-13T05:11:59;42.92;;;19.85;;
35592;SDS011;64447;52.140;5.602;2023-02-13T05:14:25;39.83;;;20.20;;
35592;SDS011;64447;52.140;5.602;2023-02-13T05:20:13;36.22;;;18.52;;
35592;SDS011;64447;52.140;5.602;2023-02-13T05:22:45;40.50;;;20.95;;
35592;SDS011;64447;52.140;5.602;2023-02-13T05:25:31;36.75;;;19.77;;
35592;SDS011;64447;52.140;5.602;2023-02-13T05:27:57;36.20;;;19.13;;
35592;SDS011;64447;52.140;5.602;2023-02-13T05:30:23;32.92;;;18.15;;
35592;SDS011;64447;52.140;5.602;2023-02-13T05:32:49;39.55;;;20.20;;
35592;SDS011;64447;52.140;5.602;2023-02-13T05:35:19;39.47;;;19.95;;
35592;SDS011;64447;52.140;5.602;2023-02-13T05:37:45;37.17;;;18.60;;
35592;SDS011;64447;52.140;5.602;2023-02-13T05:40:11;38.33;;;20.25;;
35592;SDS011;64447;52.140;5.602;2023-02-13T05:42:38;40.00;;;21.15;;
35592;SDS011;64447;52.140;5.602;2023-02-13T05:45:04;38.40;;;20.23;;
35592;SDS011;64447;52.140;5.602;2023-02-13T05:50:52;39.67;;;20.08;;
35592;SDS011;64447;52.140;5.602;2023-02-13T05:53:17;36.10;;;19.92;;
35592;SDS011;64447;52.140;5.602;2023-02-13T05:55:43;44.80;;;22.98;;
35592;SDS011;64447;52.140;5.602;2023-02-13T05:58:08;40.10;;;20.60;;
35592;SDS011;64447;52.140;5.602;2023-02-13T06:00:35;39.20;;;20.27;;
35592;SDS011;64447;52.140;5.602;2023-02-13T06:03:01;42.53;;;21.40;;
35592;SDS011;64447;52.140;5.602;2023-02-13T06:05:27;41.17;;;21.73;;
35592;SDS011;64447;52.140;5.602;2023-02-13T06:07:52;43.50;;;21.58;;
35592;SDS011;64447;52.140;5.602;2023-02-13T06:10:18;44.28;;;22.55;;
35592;SDS011;64447;52.140;5.602;2023-02-13T06:12:43;46.20;;;23.10;;
35592;SDS011;64447;52.140;5.602;2023-02-13T06:15:09;45.05;;;23.17;;
35592;SDS011;64447;52.140;5.602;2023-02-13T06:20:56;43.00;;;21.35;;
35592;SDS011;64447;52.140;5.602;2023-02-13T06:23:23;42.90;;;21.88;;
35592;SDS011;64447;52.140;5.602;2023-02-13T06:25:49;40.40;;;20.60;;
35592;SDS011;64447;52.140;5.602;2023-02-13T06:28:15;38.60;;;20.88;;
35592;SDS011;64447;52.140;5.602;2023-02-13T06:30:40;40.67;;;21.58;;
35592;SDS011;64447;52.140;5.602;2023-02-13T06:33:06;39.70;;;21.80;;
35592;SDS011;64447;52.140;5.602;2023-02-13T06:35:32;42.95;;;21.38;;
35592;SDS011;64447;52.140;5.602;2023-02-13T06:37:57;40.88;;;22.05;;
35592;SDS011;64447;52.140;5.602;2023-02-13T06:40:23;44.38;;;22.70;;
35592;SDS011;64447;52.140;5.602;2023-02-13T06:42:49;42.65;;;22.23;;
35592;SDS011;64447;52.140;5.602;2023-02-13T06:45:14;39.85;;;20.15;;
35592;SDS011;64447;52.140;5.602;2023-02-13T06:47:43;44.85;;;22.33;;
35592;SDS011;64447;52.140;5.602;2023-02-13T06:50:11;38.55;;;20.50;;
35592;SDS011;64447;52.140;5.602;2023-02-13T06:52:37;40.83;;;21.40;;
35592;SDS011;64447;52.140;5.602;2023-02-13T06:55:03;44.00;;;23.58;;
35592;SDS011;64447;52.140;5.602;2023-02-13T06:57:29;41.42;;;22.13;;
35592;SDS011;64447;52.140;5.602;2023-02-13T06:59:58;39.78;;;20.95;;
35592;SDS011;64447;52.140;5.602;2023-02-13T07:02:24;42.83;;;22.63;;
35592;SDS011;64447;52.140;5.602;2023-02-13T07:04:50;39.85;;;22.23;;
35592;SDS011;64447;52.140;5.602;2023-02-13T07:07:15;41.63;;;21.67;;
35592;SDS011;64447;52.140;5.602;2023-02-13T07:09:41;43.38;;;23.63;;
35592;SDS011;64447;52.140;5.602;2023-02-13T07:12:06;43.92;;;23.80;;
35592;SDS011;64447;52.140;5.602;2023-02-13T07:14:32;43.10;;;22.95;;
35592;SDS011;64447;52.140;5.602;2023-02-13T07:16:58;45.88;;;22.40;;
35592;SDS011;64447;52.140;5.602;2023-02-13T07:19:23;42.03;;;21.70;;
35592;SDS011;64447;52.140;5.602;2023-02-13T07:21:49;41.88;;;23.63;;
35592;SDS011;64447;52.140;5.602;2023-02-13T07:24:14;40.35;;;21.52;;
35592;SDS011;64447;52.140;5.602;2023-02-13T07:26:40;46.08;;;23.52;;
35592;SDS011;64447;52.140;5.602;2023-02-13T07:29:05;47.45;;;23.95;;
35592;SDS011;64447;52.140;5.602;2023-02-13T07:31:32;40.50;;;22.77;;
35592;SDS011;64447;52.140;5.602;2023-02-13T07:33:58;39.78;;;22.77;;
35592;SDS011;64447;52.140;5.602;2023-02-13T07:36:24;45.63;;;23.85;;
35592;SDS011;64447;52.140;5.602;2023-02-13T07:38:51;42.42;;;23.40;;
35592;SDS011;64447;52.140;5.602;2023-02-13T07:41:16;43.78;;;23.50;;
35592;SDS011;64447;52.140;5.602;2023-02-13T07:43:42;45.83;;;24.65;;
35592;SDS011;64447;52.140;5.602;2023-02-13T07:46:08;44.60;;;23.48;;
35592;SDS011;64447;52.140;5.602;2023-02-13T07:48:34;45.40;;;24.55;;
35592;SDS011;64447;52.140;5.602;2023-02-13T07:51:00;47.10;;;24.77;;
35592;SDS011;64447;52.140;5.602;2023-02-13T07:53:27;45.38;;;24.67;;
35592;SDS011;64447;52.140;5.602;2023-02-13T07:55:53;46.35;;;23.45;;
35592;SDS011;64447;52.140;5.602;2023-02-13T07:58:18;47.47;;;23.80;;
35592;SDS011;64447;52.140;5.602;2023-02-13T08:00:44;48.58;;;24.27;;
35592;SDS011;64447;52.140;5.602;2023-02-13T08:03:09;41.72;;;23.42;;
35592;SDS011;64447;52.140;5.602;2023-02-13T08:05:35;45.75;;;24.35;;
35592;SDS011;64447;52.140;5.602;2023-02-13T08:08:01;46.95;;;24.83;;
35592;SDS011;64447;52.140;5.602;2023-02-13T08:10:27;49.75;;;25.38;;
35592;SDS011;64447;52.140;5.602;2023-02-13T08:13:12;47.65;;;23.65;;
35592;SDS011;64447;52.140;5.602;2023-02-13T08:15:39;50.25;;;25.98;;
35592;SDS011;64447;52.140;5.602;2023-02-13T08:18:05;44.92;;;24.83;;
35592;SDS011;64447;52.140;5.602;2023-02-13T08:20:30;47.53;;;26.15;;
35592;SDS011;64447;52.140;5.602;2023-02-13T08:23:03;45.33;;;25.17;;
35592;SDS011;64447;52.140;5.602;2023-02-13T08:25:30;46.78;;;26.13;;
35592;SDS011;64447;52.140;5.602;2023-02-13T08:27:57;48.08;;;26.08;;
35592;SDS011;64447;52.140;5.602;2023-02-13T08:30:23;49.40;;;25.70;;
35592;SDS011;64447;52.140;5.602;2023-02-13T08:32:49;44.92;;;25.27;;
35592;SDS011;64447;52.140;5.602;2023-02-13T08:35:14;47.05;;;26.17;;
35592;SDS011;64447;52.140;5.602;2023-02-13T08:37:40;50.72;;;25.55;;
35592;SDS011;64447;52.140;5.602;2023-02-13T08:40:06;43.05;;;24.42;;
35592;SDS011;64447;52.140;5.602;2023-02-13T08:42:34;46.30;;;25.65;;
35592;SDS011;64447;52.140;5.602;2023-02-13T08:45:00;40.40;;;24.00;;
35592;SDS011;64447;52.140;5.602;2023-02-13T08:47:26;48.80;;;27.10;;
35592;SDS011;64447;52.140;5.602;2023-02-13T08:49:51;48.58;;;25.48;;
35592;SDS011;64447;52.140;5.602;2023-02-13T08:52:17;47.75;;;24.63;;
35592;SDS011;64447;52.140;5.602;2023-02-13T08:54:43;50.47;;;25.33;;
35592;SDS011;64447;52.140;5.602;2023-02-13T08:57:08;41.40;;;24.23;;
35592;SDS011;64447;52.140;5.602;2023-02-13T08:59:34;38.90;;;23.67;;
35592;SDS011;64447;52.140;5.602;2023-02-13T09:01:59;38.53;;;22.92;;
35592;SDS011;64447;52.140;5.602;2023-02-13T09:04:25;39.83;;;22.38;;
35592;SDS011;64447;52.140;5.602;2023-02-13T09:06:51;40.63;;;23.15;;
35592;SDS011;64447;52.140;5.602;2023-02-13T09:09:17;38.88;;;23.23;;
35592;SDS011;64447;52.140;5.602;2023-02-13T09:11:43;40.83;;;22.95;;
35592;SDS011;64447;52.140;5.602;2023-02-13T09:14:08;38.90;;;23.42;;
35592;SDS011;64447;52.140;5.602;2023-02-13T09:16:34;35.97;;;21.45;;
35592;SDS011;64447;52.140;5.602;2023-02-13T09:19:00;44.92;;;23.95;;
35592;SDS011;64447;52.140;5.602;2023-02-13T09:21:25;41.00;;;23.10;;
35592;SDS011;64447;52.140;5.602;2023-02-13T09:23:51;37.85;;;22.23;;
35592;SDS011;64447;52.140;5.602;2023-02-13T09:26:19;40.35;;;23.10;;
35592;SDS011;64447;52.140;5.602;2023-02-13T09:28:44;33.03;;;20.05;;
35592;SDS011;64447;52.140;5.602;2023-02-13T09:31:11;34.85;;;21.35;;
35592;SDS011;64447;52.140;5.602;2023-02-13T09:33:44;36.08;;;21.55;;
35592;SDS011;64447;52.140;5.602;2023-02-13T09:36:12;42.30;;;22.70;;
35592;SDS011;64447;52.140;5.602;2023-02-13T09:38:40;38.15;;;21.70;;
35592;SDS011;64447;52.140;5.602;2023-02-13T09:43:43;35.75;;;21.02;;
35592;SDS011;64447;52.140;5.602;2023-02-13T09:46:18;34.50;;;21.27;;
35592;SDS011;64447;52.140;5.602;2023-02-13T09:48:50;35.03;;;21.52;;
35592;SDS011;64447;52.140;5.602;2023-02-13T09:51:20;36.72;;;20.42;;
35592;SDS011;64447;52.140;5.602;2023-02-13T09:53:56;38.83;;;21.38;;
35592;SDS011;64447;52.140;5.602;2023-02-13T09:56:45;33.35;;;20.38;;
35592;SDS011;64447;52.140;5.602;2023-02-13T10:02:24;35.67;;;20.15;;
35592;SDS011;64447;52.140;5.602;2023-02-13T10:08:30;34.28;;;20.70;;
35592;SDS011;64447;52.140;5.602;2023-02-13T10:16:19;32.80;;;20.70;;
35592;SDS011;64447;52.140;5.602;2023-02-13T10:21:51;36.72;;;22.00;;
35592;SDS011;64447;52.140;5.602;2023-02-13T10:24:39;30.48;;;19.52;;
35592;SDS011;64447;52.140;5.602;2023-02-13T10:27:26;33.10;;;21.50;;
35592;SDS011;64447;52.140;5.602;2023-02-13T10:30:04;37.72;;;20.65;;
35592;SDS011;64447;52.140;5.602;2023-02-13T10:35:44;33.53;;;20.45;;
35592;SDS011;64447;52.140;5.602;2023-02-13T10:38:26;32.90;;;19.92;;
35592;SDS011;64447;52.140;5.602;2023-02-13T10:46:32;32.38;;;20.27;;
35592;SDS011;64447;52.140;5.602;2023-02-13T10:55:14;36.38;;;21.02;;
35592;SDS011;64447;52.140;5.602;2023-02-13T10:58:06;32.75;;;20.33;;
35592;SDS011;64447;52.140;5.602;2023-02-13T11:03:26;33.88;;;20.67;;
35592;SDS011;64447;52.140;5.602;2023-02-13T11:05:53;35.03;;;20.08;;
35592;SDS011;64447;52.140;5.602;2023-02-13T11:08:25;29.98;;;19.17;;
35592;SDS011;64447;52.140;5.602;2023-02-13T11:10:54;32.25;;;19.67;;
35592;SDS011;64447;52.140;5.602;2023-02-13T11:13:21;33.97;;;20.17;;
35592;SDS011;64447;52.140;5.602;2023-02-13T11:16:05;31.63;;;19.60;;
35592;SDS011;64447;52.140;5.602;2023-02-13T11:18:35;30.08;;;19.63;;
35592;SDS011;64447;52.140;5.602;2023-02-13T11:21:11;32.60;;;20.13;;
35592;SDS011;64447;52.140;5.602;2023-02-13T11:23:43;32.38;;;20.38;;
35592;SDS011;64447;52.140;5.602;2023-02-13T11:26:14;32.15;;;20.15;;
35592;SDS011;64447;52.140;5.602;2023-02-13T11:29:00;30.17;;;18.98;;
35592;SDS011;64447;52.140;5.602;2023-02-13T11:31:31;29.40;;;19.52;;
35592;SDS011;64447;52.140;5.602;2023-02-13T11:33:59;34.55;;;21.45;;
35592;SDS011;64447;52.140;5.602;2023-02-13T11:36:52;30.92;;;19.50;;
35592;SDS011;64447;52.140;5.602;2023-02-13T11:39:31;31.63;;;18.95;;
35592;SDS011;64447;52.140;5.602;2023-02-13T11:41:56;28.27;;;18.10;;
35592;SDS011;64447;52.140;5.602;2023-02-13T11:44:27;29.85;;;18.40;;
35592;SDS011;64447;52.140;5.602;2023-02-13T11:46:58;28.90;;;19.63;;
35592;SDS011;64447;52.140;5.602;2023-02-13T11:51:53;29.48;;;18.83;;
35592;SDS011;64447;52.140;5.602;2023-02-13T11:57:21;29.33;;;17.27;;
35592;SDS011;64447;52.140;5.602;2023-02-13T11:59:53;26.95;;;18.77;;
35592;SDS011;64447;52.140;5.602;2023-02-13T12:05:54;30.25;;;18.88;;
35592;SDS011;64447;52.140;5.602;2023-02-13T12:08:37;28.88;;;18.88;;
35592;SDS011;64447;52.140;5.602;2023-02-13T12:14:03;30.58;;;17.88;;
35592;SDS011;64447;52.140;5.602;2023-02-13T12:16:30;29.67;;;18.25;;
35592;SDS011;64447;52.140;5.602;2023-02-13T12:22:31;33.28;;;19.33;;
35592;SDS011;64447;52.140;5.602;2023-02-13T12:25:13;30.65;;;19.02;;
35592;SDS011;64447;52.140;5.602;2023-02-13T12:36:29;29.35;;;18.67;;
35592;SDS011;64447;52.140;5.602;2023-02-13T12:39:17;31.20;;;19.08;;
35592;SDS011;64447;52.140;5.602;2023-02-13T12:42:19;28.00;;;18.75;;
35592;SDS011;64447;52.140;5.602;2023-02-13T12:44:52;26.38;;;17.00;;
35592;SDS011;64447;52.140;5.602;2023-02-13T12:47:36;27.27;;;17.80;;
35592;SDS011;64447;52.140;5.602;2023-02-13T12:53:35;26.63;;;17.52;;
35592;SDS011;64447;52.140;5.602;2023-02-13T12:59:09;26.25;;;17.40;;
35592;SDS011;64447;52.140;5.602;2023-02-13T13:21:43;31.58;;;19.77;;
35592;SDS011;64447;52.140;5.602;2023-02-13T13:27:32;27.25;;;17.25;;
35592;SDS011;64447;52.140;5.602;2023-02-13T13:30:16;29.88;;;19.55;;
35592;SDS011;64447;52.140;5.602;2023-02-13T14:08:03;26.92;;;18.02;;
35592;SDS011;64447;52.140;5.602;2023-02-13T14:13:57;28.10;;;17.30;;
35592;SDS011;64447;52.140;5.602;2023-02-13T14:16:37;26.98;;;17.10;;
35592;SDS011;64447;52.140;5.602;2023-02-13T14:24:58;27.48;;;17.63;;
35592;SDS011;64447;52.140;5.602;2023-02-13T14:27:30;25.70;;;16.30;;
35592;SDS011;64447;52.140;5.602;2023-02-13T14:30:06;28.90;;;17.60;;
35592;SDS011;64447;52.140;5.602;2023-02-13T14:32:54;27.58;;;17.70;;
35592;SDS011;64447;52.140;5.602;2023-02-13T14:35:28;27.52;;;16.63;;
35592;SDS011;64447;52.140;5.602;2023-02-13T14:37:58;21.95;;;14.93;;
35592;SDS011;64447;52.140;5.602;2023-02-13T14:48:39;25.00;;;15.70;;
35592;SDS011;64447;52.140;5.602;2023-02-13T14:51:06;23.48;;;15.20;;
35592;SDS011;64447;52.140;5.602;2023-02-13T14:53:45;23.38;;;15.23;;
35592;SDS011;64447;52.140;5.602;2023-02-13T14:56:17;22.20;;;14.30;;
35592;SDS011;64447;52.140;5.602;2023-02-13T14:58:50;20.98;;;14.38;;
35592;SDS011;64447;52.140;5.602;2023-02-13T15:04:04;25.60;;;14.93;;
35592;SDS011;64447;52.140;5.602;2023-02-13T15:06:43;24.98;;;14.77;;
35592;SDS011;64447;52.140;5.602;2023-02-13T15:11:50;21.35;;;13.95;;
35592;SDS011;64447;52.140;5.602;2023-02-13T15:16:54;23.40;;;14.70;;
35592;SDS011;64447;52.140;5.602;2023-02-13T15:19:23;22.95;;;14.05;;
35592;SDS011;64447;52.140;5.602;2023-02-13T15:21:54;21.75;;;14.35;;
35592;SDS011;64447;52.140;5.602;2023-02-13T15:24:23;23.08;;;14.90;;
35592;SDS011;64447;52.140;5.602;2023-02-13T15:26:54;22.20;;;14.40;;
35592;SDS011;64447;52.140;5.602;2023-02-13T15:29:27;21.75;;;14.40;;
35592;SDS011;64447;52.140;5.602;2023-02-13T15:31:54;21.05;;;14.63;;
35592;SDS011;64447;52.140;5.602;2023-02-13T15:34:20;22.60;;;15.27;;
35592;SDS011;64447;52.140;5.602;2023-02-13T15:36:58;25.05;;;14.88;;
35592;SDS011;64447;52.140;5.602;2023-02-13T15:39:28;22.63;;;14.80;;
35592;SDS011;64447;52.140;5.602;2023-02-13T15:41:56;19.88;;;14.10;;
35592;SDS011;64447;52.140;5.602;2023-02-13T15:44:28;21.50;;;13.85;;
35592;SDS011;64447;52.140;5.602;2023-02-13T15:47:07;22.67;;;14.02;;
35592;SDS011;64447;52.140;5.602;2023-02-13T15:49:53;21.10;;;12.90;;
35592;SDS011;64447;52.140;5.602;2023-02-13T15:52:21;21.52;;;13.85;;
35592;SDS011;64447;52.140;5.602;2023-02-13T15:55:02;20.83;;;14.38;;
35592;SDS011;64447;52.140;5.602;2023-02-13T15:57:28;22.20;;;13.48;;
35592;SDS011;64447;52.140;5.602;2023-02-13T15:59:54;26.10;;;16.02;;
35592;SDS011;64447;52.140;5.602;2023-02-13T16:02:24;32.10;;;19.73;;
35592;SDS011;64447;52.140;5.602;2023-02-13T16:04:57;35.15;;;22.50;;
35592;SDS011;64447;52.140;5.602;2023-02-13T16:07:26;41.53;;;24.90;;
35592;SDS011;64447;52.140;5.602;2023-02-13T16:09:51;38.58;;;23.83;;
35592;SDS011;64447;52.140;5.602;2023-02-13T16:12:54;36.72;;;22.73;;
35592;SDS011;64447;52.140;5.602;2023-02-13T16:15:22;38.80;;;23.48;;
35592;SDS011;64447;52.140;5.602;2023-02-13T16:17:51;35.28;;;23.17;;
35592;SDS011;64447;52.140;5.602;2023-02-13T16:20:18;36.30;;;23.60;;
35592;SDS011;64447;52.140;5.602;2023-02-13T16:22:50;40.60;;;23.60;;
35592;SDS011;64447;52.140;5.602;2023-02-13T16:25:25;37.58;;;24.15;;
35592;SDS011;64447;52.140;5.602;2023-02-13T16:27:56;46.10;;;24.20;;
35592;SDS011;64447;52.140;5.602;2023-02-13T16:35:34;41.10;;;23.50;;
35592;SDS011;64447;52.140;5.602;2023-02-13T16:38:02;41.63;;;22.58;;
35592;SDS011;64447;52.140;5.602;2023-02-13T16:40:41;35.42;;;22.75;;
35592;SDS011;64447;52.140;5.602;2023-02-13T16:53:59;38.20;;;23.88;;
35592;SDS011;64447;52.140;5.602;2023-02-13T16:56:28;36.90;;;23.58;;
35592;SDS011;64447;52.140;5.602;2023-02-13T17:01:45;39.92;;;25.70;;
35592;SDS011;64447;52.140;5.602;2023-02-13T17:04:21;38.70;;;23.80;;
35592;SDS011;64447;52.140;5.602;2023-02-13T17:06:50;36.88;;;24.17;;
35592;SDS011;64447;52.140;5.602;2023-02-13T17:09:19;36.40;;;23.20;;
35592;SDS011;64447;52.140;5.602;2023-02-13T17:11:45;39.15;;;24.83;;
35592;SDS011;64447;52.140;5.602;2023-02-13T17:14:14;42.08;;;25.60;;
35592;SDS011;64447;52.140;5.602;2023-02-13T17:16:40;37.25;;;24.02;;
35592;SDS011;64447;52.140;5.602;2023-02-13T17:19:06;38.30;;;24.88;;
35592;SDS011;64447;52.140;5.602;2023-02-13T17:21:31;38.20;;;25.65;;
35592;SDS011;64447;52.140;5.602;2023-02-13T17:23:57;37.03;;;25.38;;
35592;SDS011;64447;52.140;5.602;2023-02-13T17:26:23;38.00;;;25.73;;
35592;SDS011;64447;52.140;5.602;2023-02-13T17:28:48;40.03;;;26.70;;
35592;SDS011;64447;52.140;5.602;2023-02-13T17:31:14;44.25;;;26.90;;
35592;SDS011;64447;52.140;5.602;2023-02-13T17:33:39;41.35;;;27.10;;
35592;SDS011;64447;52.140;5.602;2023-02-13T17:36:06;45.13;;;28.00;;
35592;SDS011;64447;52.140;5.602;2023-02-13T17:38:33;47.72;;;29.13;;
35592;SDS011;64447;52.140;5.602;2023-02-13T17:40:59;42.30;;;28.25;;
35592;SDS011;64447;52.140;5.602;2023-02-13T17:43:24;42.92;;;28.25;;
35592;SDS011;64447;52.140;5.602;2023-02-13T17:45:51;42.53;;;27.58;;
35592;SDS011;64447;52.140;5.602;2023-02-13T17:48:17;43.67;;;26.17;;
35592;SDS011;64447;52.140;5.602;2023-02-13T17:50:43;39.70;;;25.85;;
35592;SDS011;64447;52.140;5.602;2023-02-13T17:53:17;39.38;;;25.92;;
35592;SDS011;64447;52.140;5.602;2023-02-13T17:55:46;45.03;;;27.85;;
35592;SDS011;64447;52.140;5.602;2023-02-13T17:58:12;40.90;;;26.05;;
35592;SDS011;64447;52.140;5.602;2023-02-13T18:00:37;42.70;;;26.13;;
35592;SDS011;64447;52.140;5.602;2023-02-13T18:03:03;41.90;;;25.25;;
35592;SDS011;64447;52.140;5.602;2023-02-13T18:05:29;45.40;;;27.27;;
35592;SDS011;64447;52.140;5.602;2023-02-13T18:07:56;44.20;;;26.95;;
35592;SDS011;64447;52.140;5.602;2023-02-13T18:10:22;41.63;;;27.13;;
35592;SDS011;64447;52.140;5.602;2023-02-13T18:12:50;46.47;;;28.77;;
35592;SDS011;64447;52.140;5.602;2023-02-13T18:15:17;41.13;;;26.77;;
35592;SDS011;64447;52.140;5.602;2023-02-13T18:17:44;48.20;;;28.00;;
35592;SDS011;64447;52.140;5.602;2023-02-13T18:20:11;47.22;;;29.50;;
35592;SDS011;64447;52.140;5.602;2023-02-13T18:22:38;48.95;;;31.65;;
35592;SDS011;64447;52.140;5.602;2023-02-13T18:25:04;44.45;;;28.33;;
35592;SDS011;64447;52.140;5.602;2023-02-13T18:27:31;48.75;;;30.75;;
35592;SDS011;64447;52.140;5.602;2023-02-13T18:29:57;48.72;;;31.27;;
35592;SDS011;64447;52.140;5.602;2023-02-13T18:32:22;49.10;;;30.20;;
35592;SDS011;64447;52.140;5.602;2023-02-13T18:34:48;49.50;;;32.05;;
35592;SDS011;64447;52.140;5.602;2023-02-13T18:37:14;52.35;;;32.75;;